Time;durP1;ratioP1;P1;durP2;ratioP2;P2;SDS_P1;SDS_P2;PMS_P1;PMS_P2;Temp;Humidity;BMP_temperature;BMP_pressure;BME280_temperature;BME280_humidity;BME280_pressure;Samples;Min_cycle;Max_cycle;Signal;HPM_P1;HPM_P2
2022/03/03 00:01:40;;;;;;;28.63;13.85;;;0.50;94.40;;;;;;4993314;28;20033;-74
2022/03/03 00:04:06;;;;;;;28.90;14.30;;;0.50;94.40;;;;;;4994528;28;20087;-74
2022/03/03 00:06:33;;;;;;;23.77;12.80;;;0.40;94.30;;;;;;5011974;28;20420;-75
2022/03/03 00:08:58;;;;;;;22.75;13.77;;;0.40;94.30;;;;;;4992198;28;20025;-75
2022/03/03 00:11:24;;;;;;;24.52;14.15;;;0.40;94.30;;;;;;4994022;28;20036;-75
2022/03/03 00:13:50;;;;;;;25.98;13.95;;;0.30;94.40;;;;;;4993472;28;20029;-74
2022/03/03 00:16:15;;;;;;;22.55;13.05;;;0.30;94.50;;;;;;5011340;28;20014;-75
2022/03/03 00:18:41;;;;;;;26.80;13.77;;;0.20;94.70;;;;;;4992669;28;20048;-74
2022/03/03 00:21:07;;;;;;;22.13;13.27;;;0.20;94.90;;;;;;4993493;28;20033;-74
2022/03/03 00:23:32;;;;;;;22.05;13.00;;;0.20;95.00;;;;;;4994021;28;20076;-75
2022/03/03 00:25:59;;;;;;;25.92;13.50;;;0.20;95.10;;;;;;4993577;28;20494;-75
2022/03/03 00:28:26;;;;;;;28.70;14.68;;;0.20;95.20;;;;;;5007683;28;20018;-75
2022/03/03 00:30:52;;;;;;;23.35;14.02;;;0.20;95.20;;;;;;5011177;28;20458;-74
2022/03/03 00:33:18;;;;;;;31.23;15.43;;;0.20;95.30;;;;;;4994179;28;20543;-75
2022/03/03 00:35:44;;;;;;;24.33;13.95;;;0.20;95.40;;;;;;4993933;28;20038;-75
2022/03/03 00:38:10;;;;;;;28.55;15.23;;;0.10;95.40;;;;;;4992451;28;20026;-74
2022/03/03 00:40:37;;;;;;;35.45;16.58;;;0.10;95.50;;;;;;5010379;28;20108;-74
2022/03/03 00:43:04;;;;;;;26.00;15.52;;;0.10;95.50;;;;;;4993039;28;20495;-75
2022/03/03 00:45:29;;;;;;;30.45;15.07;;;0.00;95.40;;;;;;5008088;28;20025;-75
2022/03/03 00:47:55;;;;;;;29.55;15.40;;;0.00;95.40;;;;;;4992320;28;20382;-75
2022/03/03 00:50:21;;;;;;;29.25;16.48;;;-0.10;95.50;;;;;;4997066;28;20159;-75
2022/03/03 00:52:46;;;;;;;25.95;15.50;;;-0.10;95.50;;;;;;5001671;28;20026;-74
2022/03/03 00:55:12;;;;;;;30.75;15.18;;;-0.20;95.40;;;;;;5011032;28;20385;-74
2022/03/03 00:57:37;;;;;;;25.40;14.48;;;-0.30;95.40;;;;;;5009326;28;20040;-75
2022/03/03 01:00:05;;;;;;;27.02;14.57;;;-0.40;95.40;;;;;;4993457;28;20018;-74
2022/03/03 01:02:30;;;;;;;26.65;15.32;;;-0.40;95.60;;;;;;4992955;28;20084;-75
2022/03/03 01:04:56;;;;;;;24.88;14.35;;;-0.50;95.90;;;;;;4992969;28;20030;-74
2022/03/03 01:07:22;;;;;;;26.67;15.10;;;-0.50;96.20;;;;;;5009669;28;20076;-75
2022/03/03 01:09:47;;;;;;;26.77;15.25;;;-0.50;96.30;;;;;;4992543;28;20065;-76
2022/03/03 01:12:13;;;;;;;26.45;14.68;;;-0.50;96.40;;;;;;5009321;28;20103;-75
2022/03/03 01:14:38;;;;;;;23.63;14.48;;;-0.40;96.60;;;;;;4993140;28;20080;-75
2022/03/03 01:17:04;;;;;;;29.77;16.02;;;-0.40;96.70;;;;;;4991776;28;20137;-75
2022/03/03 01:19:30;;;;;;;28.13;14.13;;;-0.40;96.80;;;;;;4992994;28;20099;-76
2022/03/03 01:21:56;;;;;;;30.30;15.77;;;-0.30;96.80;;;;;;5010327;28;20038;-75
2022/03/03 01:24:21;;;;;;;27.02;15.38;;;-0.30;96.80;;;;;;4995527;28;20026;-75
2022/03/03 01:26:47;;;;;;;26.10;14.13;;;-0.30;96.80;;;;;;4997321;28;20018;-75
2022/03/03 01:29:13;;;;;;;26.10;15.10;;;-0.30;96.80;;;;;;4986773;28;20053;-75
2022/03/03 01:31:39;;;;;;;27.67;15.20;;;-0.30;96.80;;;;;;5010428;28;20034;-75
2022/03/03 01:34:06;;;;;;;25.50;14.40;;;-0.30;96.80;;;;;;4992714;28;20543;-75
2022/03/03 01:36:32;;;;;;;26.35;14.65;;;-0.30;96.90;;;;;;4992715;28;20022;-75
2022/03/03 01:39:00;;;;;;;26.35;14.38;;;-0.30;97.00;;;;;;4991132;28;20505;-75
2022/03/03 01:41:25;;;;;;;25.58;14.88;;;-0.30;97.10;;;;;;4990909;28;20030;-75
2022/03/03 01:43:51;;;;;;;27.75;14.95;;;-0.30;97.10;;;;;;5009857;28;20113;-75
2022/03/03 01:46:17;;;;;;;26.38;14.65;;;-0.30;97.00;;;;;;4992656;28;20033;-74
2022/03/03 01:48:44;;;;;;;26.23;14.55;;;-0.30;97.10;;;;;;5010241;28;20021;-75
2022/03/03 01:51:10;;;;;;;28.48;14.65;;;-0.30;97.20;;;;;;5005698;28;20038;-75
2022/03/03 01:53:35;;;;;;;26.73;15.15;;;-0.30;97.20;;;;;;4991887;28;20064;-74
2022/03/03 01:56:02;;;;;;;25.08;14.70;;;-0.40;97.00;;;;;;4992577;28;20022;-75
2022/03/03 01:58:27;;;;;;;30.67;15.23;;;-0.50;97.00;;;;;;5008270;28;20033;-75
2022/03/03 02:00:53;;;;;;;26.88;14.70;;;-0.50;97.00;;;;;;4992395;28;20030;-75
2022/03/03 02:03:20;;;;;;;26.92;15.50;;;-0.50;97.10;;;;;;5009270;28;20457;-74
2022/03/03 02:05:45;;;;;;;24.17;14.70;;;-0.50;97.20;;;;;;4992149;28;20083;-75
2022/03/03 02:08:13;;;;;;;27.05;15.25;;;-0.50;97.30;;;;;;4990909;28;20117;-74
2022/03/03 02:10:39;;;;;;;28.48;15.15;;;-0.60;97.40;;;;;;4992187;28;20095;-74
2022/03/03 02:13:05;;;;;;;26.17;15.02;;;-0.60;97.50;;;;;;4994839;28;20022;-74
2022/03/03 02:15:30;;;;;;;23.85;14.52;;;-0.60;97.50;;;;;;5003899;28;20100;-75
2022/03/03 02:17:56;;;;;;;29.85;14.57;;;-0.60;97.60;;;;;;5025125;28;20517;-74
2022/03/03 02:20:27;;;;;;;28.35;15.48;;;-0.60;97.50;;;;;;4992200;28;20119;-74
2022/03/03 02:22:54;;;;;;;26.33;15.20;;;-0.60;97.50;;;;;;5010828;28;20030;-74
2022/03/03 02:25:21;;;;;;;28.60;14.65;;;-0.60;97.40;;;;;;5012940;28;20097;-75
2022/03/03 02:27:47;;;;;;;26.90;15.27;;;-0.60;97.40;;;;;;4993742;28;20018;-75
2022/03/03 02:30:14;;;;;;;26.25;15.25;;;-0.70;97.30;;;;;;5012615;28;20022;-74
2022/03/03 02:32:40;;;;;;;27.45;14.27;;;-0.70;97.40;;;;;;5012994;28;20040;-74
2022/03/03 02:35:07;;;;;;;25.20;15.18;;;-0.70;97.60;;;;;;4996035;28;20080;-75
2022/03/03 02:37:44;;;;;;;26.85;15.25;;;-0.70;97.40;;;;;;4994064;28;20034;-74
2022/03/03 02:40:12;;;;;;;28.65;15.25;;;-0.70;97.60;;;;;;4995941;28;20072;-75
2022/03/03 02:42:38;;;;;;;28.98;15.60;;;-0.70;97.50;;;;;;5012462;28;20034;-75
2022/03/03 02:45:05;;;;;;;26.05;15.07;;;-0.70;97.50;;;;;;4997841;28;20028;-75
2022/03/03 02:47:31;;;;;;;26.83;15.00;;;-0.70;97.70;;;;;;5012072;28;20030;-74
2022/03/03 02:49:57;;;;;;;26.58;15.75;;;-0.70;97.70;;;;;;5012493;28;20387;-73
2022/03/03 02:52:23;;;;;;;27.98;14.48;;;-0.70;97.80;;;;;;5012706;28;20505;-75
2022/03/03 02:54:49;;;;;;;24.92;14.40;;;-0.70;97.80;;;;;;4999677;28;20082;-74
2022/03/03 02:59:59;;;;;;;28.63;15.52;;;-0.70;97.70;;;;;;5011092;28;20092;-74
2022/03/03 03:02:24;;;;;;;33.58;15.88;;;-0.70;97.70;;;;;;4995161;28;20457;-75
2022/03/03 03:04:50;;;;;;;27.27;15.40;;;-0.80;97.60;;;;;;5013340;28;20029;-75
2022/03/03 03:07:16;;;;;;;29.02;15.07;;;-0.80;97.70;;;;;;5012549;28;20066;-74
2022/03/03 03:09:41;;;;;;;27.98;14.85;;;-0.90;97.70;;;;;;5010099;28;20030;-75
2022/03/03 03:12:08;;;;;;;23.85;14.88;;;-0.90;98.10;;;;;;5003825;28;20026;-75
2022/03/03 03:14:34;;;;;;;28.70;15.98;;;-0.80;98.10;;;;;;4999819;28;20037;-76
2022/03/03 03:16:59;;;;;;;25.00;14.60;;;-0.80;98.10;;;;;;5001831;28;20125;-75
2022/03/03 03:19:26;;;;;;;26.73;15.25;;;-0.80;98.00;;;;;;4995176;28;20034;-76
2022/03/03 03:21:51;;;;;;;27.42;14.70;;;-0.80;98.10;;;;;;4994847;28;20431;-76
2022/03/03 03:24:17;;;;;;;32.38;16.55;;;-0.80;98.00;;;;;;4995221;28;20026;-75
2022/03/03 03:26:42;;;;;;;25.67;15.50;;;-0.70;98.10;;;;;;5012205;28;20025;-75
2022/03/03 03:29:08;;;;;;;26.75;14.88;;;-0.70;98.10;;;;;;5007780;28;20066;-75
2022/03/03 03:31:33;;;;;;;27.50;14.88;;;-0.70;98.10;;;;;;4995090;28;20026;-75
2022/03/03 03:33:59;;;;;;;24.70;14.52;;;-0.70;98.10;;;;;;5011125;28;20088;-75
2022/03/03 03:36:25;;;;;;;28.20;14.60;;;-0.80;98.10;;;;;;4995055;28;20033;-75
2022/03/03 03:38:50;;;;;;;25.65;14.27;;;-0.80;98.00;;;;;;4993255;28;20085;-75
2022/03/03 03:41:16;;;;;;;25.20;14.80;;;-0.90;97.90;;;;;;4993005;28;20033;-75
2022/03/03 03:43:41;;;;;;;26.40;15.10;;;-0.90;98.00;;;;;;4990520;28;20028;-75
2022/03/03 03:46:07;;;;;;;26.48;14.95;;;-1.00;98.10;;;;;;5012173;28;20033;-75
2022/03/03 03:48:33;;;;;;;25.55;14.38;;;-1.00;98.20;;;;;;4993401;28;20028;-75
2022/03/03 03:50:59;;;;;;;26.52;14.45;;;-1.00;98.30;;;;;;4994845;28;20058;-75
2022/03/03 03:53:24;;;;;;;27.67;14.63;;;-1.00;98.20;;;;;;5011730;28;20030;-76
2022/03/03 03:55:51;;;;;;;25.52;14.63;;;-1.00;98.20;;;;;;5012279;28;20022;-76
2022/03/03 03:58:17;;;;;;;29.17;15.15;;;-1.00;98.20;;;;;;4992318;28;20022;-75
2022/03/03 04:00:42;;;;;;;24.27;14.27;;;-1.00;98.40;;;;;;5012037;28;20394;-75
2022/03/03 04:03:08;;;;;;;24.98;14.38;;;-0.90;98.50;;;;;;4994235;28;20121;-75
2022/03/03 04:05:35;;;;;;;26.83;15.50;;;-0.90;98.50;;;;;;5011977;28;20101;-76
2022/03/03 04:08:01;;;;;;;27.45;14.88;;;-0.90;98.40;;;;;;4992987;28;20155;-75
2022/03/03 04:10:28;;;;;;;27.50;15.15;;;-0.80;98.50;;;;;;4993750;28;20064;-76
2022/03/03 04:12:54;;;;;;;28.88;14.82;;;-0.90;98.50;;;;;;5011405;28;22547;-75
2022/03/03 04:15:20;;;;;;;23.75;14.30;;;-0.80;98.60;;;;;;4993792;28;20026;-76
2022/03/03 04:17:45;;;;;;;27.05;14.35;;;-0.80;98.50;;;;;;4992784;28;20030;-76
2022/03/03 04:20:11;;;;;;;21.58;13.38;;;-0.80;98.30;;;;;;4994081;28;20053;-75
2022/03/03 04:22:37;;;;;;;28.05;14.57;;;-0.80;98.30;;;;;;5023179;28;20032;-76
2022/03/03 04:25:03;;;;;;;27.90;15.25;;;-0.80;98.20;;;;;;4994167;28;20026;-75
2022/03/03 04:27:29;;;;;;;28.15;15.13;;;-0.80;98.30;;;;;;4992404;28;20022;-75
2022/03/03 04:29:55;;;;;;;24.05;14.93;;;-0.80;98.30;;;;;;5010214;28;20443;-75
2022/03/03 04:32:20;;;;;;;31.00;14.90;;;-0.80;98.20;;;;;;5011737;28;20186;-75
2022/03/03 04:34:46;;;;;;;24.52;14.95;;;-0.90;98.10;;;;;;4993300;28;20030;-75
2022/03/03 04:37:12;;;;;;;25.90;15.10;;;-1.00;98.10;;;;;;4976220;28;20041;-76
2022/03/03 04:39:37;;;;;;;25.10;14.20;;;-1.10;98.10;;;;;;4992077;28;20068;-76
2022/03/03 04:42:03;;;;;;;28.23;14.70;;;-1.10;98.40;;;;;;5010370;28;20097;-75
2022/03/03 04:44:29;;;;;;;25.67;15.05;;;-1.20;98.40;;;;;;4998348;28;20120;-75
2022/03/03 04:46:55;;;;;;;28.83;15.45;;;-1.20;98.40;;;;;;4995715;28;20113;-75
2022/03/03 04:49:20;;;;;;;29.23;15.13;;;-1.30;98.40;;;;;;4995135;28;20026;-76
2022/03/03 04:51:46;;;;;;;25.70;15.02;;;-1.30;98.60;;;;;;5031080;28;20105;-75
2022/03/03 04:54:11;;;;;;;28.58;15.25;;;-1.30;98.70;;;;;;4999936;28;20056;-75
2022/03/03 04:56:38;;;;;;;23.42;14.57;;;-1.30;98.60;;;;;;5010791;28;20101;-76
2022/03/03 04:59:05;;;;;;;24.20;15.25;;;-1.30;98.60;;;;;;5008704;28;20506;-76
2022/03/03 05:01:31;;;;;;;22.42;13.63;;;-1.30;98.70;;;;;;5010668;28;20025;-75
2022/03/03 05:03:56;;;;;;;30.05;16.15;;;-1.30;98.80;;;;;;5012053;28;20037;-74
2022/03/03 05:06:22;;;;;;;24.45;14.10;;;-1.30;98.90;;;;;;4993166;28;20022;-75
2022/03/03 05:08:48;;;;;;;26.05;14.43;;;-1.30;98.90;;;;;;4992283;28;20022;-76
2022/03/03 05:11:13;;;;;;;27.15;13.88;;;-1.30;98.80;;;;;;4993095;28;20018;-76
2022/03/03 05:13:39;;;;;;;23.90;14.30;;;-1.20;98.90;;;;;;4995236;28;20675;-76
2022/03/03 05:16:05;;;;;;;23.92;13.18;;;-1.20;98.60;;;;;;5010845;28;20025;-76
2022/03/03 05:18:31;;;;;;;25.85;13.98;;;-1.20;98.50;;;;;;4999941;28;20025;-75
2022/03/03 05:20:57;;;;;;;26.30;14.75;;;-1.30;98.40;;;;;;5010555;28;20044;-75
2022/03/03 05:23:26;;;;;;;27.27;13.98;;;-1.30;98.50;;;;;;4992140;28;20038;-74
2022/03/03 05:25:51;;;;;;;24.48;13.65;;;-1.40;98.50;;;;;;5013747;28;20039;-74
2022/03/03 05:28:17;;;;;;;25.80;14.70;;;-1.40;98.50;;;;;;4991436;28;20030;-74
2022/03/03 05:30:43;;;;;;;24.70;13.93;;;-1.50;98.50;;;;;;5009202;28;20017;-74
2022/03/03 05:33:08;;;;;;;25.85;14.82;;;-1.50;98.50;;;;;;5008895;28;20030;-74
2022/03/03 05:35:34;;;;;;;26.27;14.55;;;-1.60;98.60;;;;;;5010801;28;20041;-74
2022/03/03 05:38:00;;;;;;;23.42;14.02;;;-1.60;98.90;;;;;;5010898;28;20497;-73
2022/03/03 05:40:26;;;;;;;28.20;14.45;;;-1.60;99.20;;;;;;4968416;23;20059;-69
2022/03/03 05:42:52;;;;;;;24.60;13.70;;;-1.40;99.20;;;;;;4969191;28;20125;-70
2022/03/03 05:45:18;;;;;;;25.98;14.90;;;-1.40;99.10;;;;;;4985040;28;20027;-69
2022/03/03 05:47:45;;;;;;;24.52;14.05;;;-1.40;98.90;;;;;;4968419;28;20438;-70
2022/03/03 05:50:11;;;;;;;26.25;13.90;;;-1.30;98.70;;;;;;4970207;28;20102;-69
2022/03/03 05:52:37;;;;;;;25.35;14.32;;;-1.30;98.70;;;;;;4965259;28;20586;-69
2022/03/03 05:55:03;;;;;;;26.27;14.60;;;-1.30;99.00;;;;;;4970285;28;20045;-69
2022/03/03 05:57:36;;;;;;;24.15;13.48;;;-1.30;98.80;;;;;;4984940;28;20022;-69
2022/03/03 06:00:17;;;;;;;24.88;14.38;;;-1.20;98.70;;;;;;4970248;28;20137;-70
2022/03/03 06:02:54;;;;;;;25.25;14.38;;;-1.30;98.50;;;;;;4970242;28;20062;-69
2022/03/03 06:05:25;;;;;;;26.15;14.93;;;-1.30;98.20;;;;;;4975360;28;20053;-69
2022/03/03 06:08:01;;;;;;;27.55;14.65;;;-1.40;98.20;;;;;;4967020;28;20084;-68
2022/03/03 06:10:32;;;;;;;29.05;14.55;;;-1.50;98.40;;;;;;4975767;28;20030;-69
2022/03/03 06:13:18;;;;;;;24.95;14.23;;;-1.50;98.50;;;;;;4970514;28;20043;-70
2022/03/03 06:15:44;;;;;;;28.83;14.75;;;-1.50;98.60;;;;;;4969699;28;20042;-69
2022/03/03 06:18:11;;;;;;;27.40;14.30;;;-1.50;98.40;;;;;;4968755;28;20027;-69
2022/03/03 06:20:37;;;;;;;30.40;15.30;;;-1.60;98.20;;;;;;4970763;28;20027;-69
2022/03/03 06:23:03;;;;;;;28.45;15.35;;;-1.60;98.30;;;;;;4970509;28;20488;-68
2022/03/03 06:25:29;;;;;;;29.35;15.85;;;-1.60;98.40;;;;;;4968656;28;20054;-68
2022/03/03 06:27:54;;;;;;;30.27;15.55;;;-1.70;98.50;;;;;;4968306;28;20034;-69
2022/03/03 06:30:20;;;;;;;28.63;16.17;;;-1.70;98.90;;;;;;4970131;28;20533;-69
2022/03/03 06:32:45;;;;;;;25.30;15.07;;;-1.60;99.10;;;;;;4968973;28;20122;-64
2022/03/03 06:35:11;;;;;;;29.98;15.52;;;-1.60;99.50;;;;;;4970441;28;20103;-68
2022/03/03 06:37:37;;;;;;;30.35;16.33;;;-1.50;99.30;;;;;;4968956;28;20035;-68
2022/03/03 06:40:03;;;;;;;31.30;16.48;;;-1.40;99.50;;;;;;4969260;28;20407;-68
2022/03/03 06:42:29;;;;;;;25.10;14.55;;;-1.30;99.50;;;;;;4969712;28;20050;-68
2022/03/03 06:44:54;;;;;;;28.65;14.70;;;-1.00;99.40;;;;;;4969651;28;20073;-69
2022/03/03 06:47:22;;;;;;;34.47;15.90;;;-0.80;99.40;;;;;;4968804;28;20028;-69
2022/03/03 06:49:48;;;;;;;24.20;14.15;;;-0.60;99.50;;;;;;4970000;28;20118;-66
2022/03/03 06:52:16;;;;;;;24.50;14.57;;;-0.40;99.20;;;;;;4969924;28;20030;-69
2022/03/03 06:54:46;;;;;;;24.73;13.02;;;-0.10;99.00;;;;;;4969324;28;20031;-66
2022/03/03 06:57:12;;;;;;;22.83;13.57;;;0.30;98.60;;;;;;4968709;28;20019;-69
2022/03/03 06:59:38;;;;;;;22.00;12.55;;;0.60;98.30;;;;;;4968060;28;20086;-69
2022/03/03 07:02:04;;;;;;;19.70;12.80;;;0.80;98.20;;;;;;4969779;28;20511;-69
2022/03/03 07:04:33;;;;;;;19.75;11.95;;;1.00;98.00;;;;;;4967665;28;20055;-68
2022/03/03 07:06:59;;;;;;;25.85;13.15;;;1.10;98.10;;;;;;4967475;28;20023;-70
2022/03/03 07:09:25;;;;;;;22.60;13.25;;;1.40;97.90;;;;;;4970056;28;20023;-67
2022/03/03 07:11:50;;;;;;;19.65;12.63;;;1.80;97.40;;;;;;4972374;28;20086;-67
2022/03/03 07:14:16;;;;;;;18.33;11.82;;;2.10;97.10;;;;;;4970283;28;20029;-67
2022/03/03 07:16:45;;;;;;;21.55;12.50;;;2.20;97.00;;;;;;4969824;28;20041;-68
2022/03/03 07:19:17;;;;;;;20.70;12.35;;;2.10;97.10;;;;;;4973400;28;20119;-67
2022/03/03 07:21:48;;;;;;;22.80;12.82;;;2.10;97.50;;;;;;4971853;28;21928;-67
2022/03/03 07:24:24;;;;;;;24.08;14.05;;;2.50;97.40;;;;;;4971658;28;20041;-66
2022/03/03 07:26:53;;;;;;;22.67;12.95;;;3.00;96.80;;;;;;4972046;28;20089;-66
2022/03/03 07:29:23;;;;;;;19.92;11.57;;;3.40;96.30;;;;;;4971669;28;20498;-66
2022/03/03 07:31:56;;;;;;;26.13;13.60;;;3.40;96.20;;;;;;4971802;28;20478;-67
2022/03/03 07:34:39;;;;;;;21.00;13.00;;;3.30;96.60;;;;;;4963241;28;20058;-68
2022/03/03 07:37:11;;;;;;;19.58;12.82;;;3.40;96.70;;;;;;4963430;28;20082;-66
2022/03/03 07:39:42;;;;;;;22.15;13.65;;;3.70;96.00;;;;;;4962003;28;20477;-68
2022/03/03 07:42:15;;;;;;;22.15;12.65;;;4.10;95.60;;;;;;4965879;28;20058;-68
2022/03/03 07:44:40;;;;;;;20.10;12.15;;;4.60;95.20;;;;;;4970477;28;20023;-66
2022/03/03 07:47:07;;;;;;;20.90;11.70;;;5.00;94.90;;;;;;4970579;28;20033;-67
2022/03/03 07:49:34;;;;;;;18.10;11.38;;;5.20;94.50;;;;;;4971769;28;20026;-67
2022/03/03 07:52:03;;;;;;;19.35;12.38;;;5.50;94.40;;;;;;4972181;28;20137;-67
2022/03/03 07:54:29;;;;;;;18.77;11.80;;;5.90;93.90;;;;;;4972746;28;20027;-67
2022/03/03 07:56:56;;;;;;;17.17;12.75;;;6.20;93.40;;;;;;4971234;28;20034;-67
2022/03/03 07:59:27;;;;;;;23.55;12.02;;;6.60;92.80;;;;;;4970706;28;20081;-67
2022/03/03 08:01:56;;;;;;;18.25;12.27;;;6.90;92.30;;;;;;4971618;28;20049;-67
2022/03/03 08:04:29;;;;;;;20.90;11.98;;;6.90;92.40;;;;;;4972033;28;20028;-68
2022/03/03 08:07:03;;;;;;;18.02;11.43;;;7.00;92.80;;;;;;4969789;28;20427;-67
2022/03/03 08:09:31;;;;;;;15.75;11.30;;;7.20;92.90;;;;;;4967843;28;20039;-68
2022/03/03 08:11:59;;;;;;;17.67;12.30;;;7.50;92.80;;;;;;4970553;28;20035;-67
2022/03/03 08:14:25;;;;;;;18.23;12.02;;;7.60;92.50;;;;;;4976621;28;20198;-68
2022/03/03 08:16:50;;;;;;;16.73;11.80;;;7.60;92.50;;;;;;4971619;28;20145;-68
2022/03/03 08:19:17;;;;;;;17.45;12.35;;;7.60;92.60;;;;;;4970087;28;20031;-68
2022/03/03 08:21:46;;;;;;;18.40;12.60;;;7.60;93.00;;;;;;4980835;28;20026;-68
2022/03/03 08:24:12;;;;;;;17.80;11.75;;;7.50;93.40;;;;;;4973946;28;20019;-68
2022/03/03 08:26:39;;;;;;;19.30;12.52;;;7.40;93.70;;;;;;4974958;28;20110;-68
2022/03/03 08:29:05;;;;;;;19.83;12.25;;;7.30;93.50;;;;;;4982308;28;20019;-68
2022/03/03 08:31:48;;;;;;;18.45;12.35;;;7.20;93.70;;;;;;4973124;28;20077;-68
2022/03/03 08:34:42;;;;;;;17.63;11.40;;;7.10;93.40;;;;;;4969660;28;20057;-68
2022/03/03 08:37:17;;;;;;;18.42;11.60;;;7.20;93.60;;;;;;4970186;28;20479;-67
2022/03/03 08:39:45;;;;;;;17.25;11.00;;;7.20;93.90;;;;;;4971542;28;20536;-68
2022/03/03 08:42:14;;;;;;;24.85;12.48;;;7.20;93.90;;;;;;4981607;28;20034;-68
2022/03/03 08:44:42;;;;;;;21.60;11.98;;;7.20;93.90;;;;;;4976406;28;20081;-67
2022/03/03 08:47:11;;;;;;;17.73;11.90;;;7.20;93.80;;;;;;4970209;28;20033;-67
2022/03/03 08:49:39;;;;;;;19.13;12.80;;;7.10;93.70;;;;;;4970712;28;20085;-67
2022/03/03 08:52:07;;;;;;;20.48;12.13;;;7.10;93.70;;;;;;4981040;28;20528;-67
2022/03/03 08:54:33;;;;;;;18.80;12.90;;;7.10;93.50;;;;;;4976726;28;20038;-68
2022/03/03 08:57:00;;;;;;;21.10;12.13;;;7.10;93.40;;;;;;4977804;28;20506;-67
2022/03/03 08:59:25;;;;;;;19.40;12.55;;;7.00;93.10;;;;;;4970366;28;20444;-67
2022/03/03 09:01:51;;;;;;;18.02;11.98;;;7.10;93.00;;;;;;4970104;28;20030;-68
2022/03/03 09:04:18;;;;;;;21.85;12.90;;;7.00;92.80;;;;;;4970628;28;20408;-67
2022/03/03 09:06:44;;;;;;;17.05;11.60;;;7.10;92.80;;;;;;4971611;28;20491;-68
2022/03/03 09:09:11;;;;;;;16.00;11.43;;;7.10;92.70;;;;;;4966282;28;20846;-67
2022/03/03 09:11:36;;;;;;;18.65;11.95;;;7.10;92.50;;;;;;4969263;28;20031;-68
2022/03/03 09:14:02;;;;;;;19.02;11.52;;;7.10;92.50;;;;;;4970720;28;20033;-67
2022/03/03 09:16:27;;;;;;;19.45;11.75;;;7.10;92.40;;;;;;4970755;28;20035;-68
2022/03/03 09:18:54;;;;;;;18.35;11.95;;;7.10;92.10;;;;;;4965043;28;20069;-68
2022/03/03 09:21:20;;;;;;;18.42;11.95;;;7.10;92.10;;;;;;4964596;28;20034;-67
2022/03/03 09:23:45;;;;;;;19.35;12.52;;;7.10;92.30;;;;;;4969986;28;20045;-68
2022/03/03 09:26:12;;;;;;;18.67;12.27;;;7.10;92.20;;;;;;4955733;28;20058;-68
2022/03/03 09:28:38;;;;;;;18.75;11.73;;;7.10;92.20;;;;;;4973493;28;20082;-68
2022/03/03 09:31:04;;;;;;;15.75;11.27;;;7.20;92.10;;;;;;4971653;28;20054;-68
2022/03/03 09:33:29;;;;;;;16.25;11.15;;;7.20;91.90;;;;;;4969411;28;20066;-68
2022/03/03 09:35:55;;;;;;;19.35;12.13;;;7.30;92.00;;;;;;4969584;28;20031;-68
2022/03/03 09:38:21;;;;;;;18.55;11.27;;;7.30;91.70;;;;;;4979981;28;20093;-68
2022/03/03 09:40:48;;;;;;;21.55;11.25;;;7.30;91.80;;;;;;4969929;28;20534;-67
2022/03/03 09:43:14;;;;;;;20.20;11.60;;;7.40;91.80;;;;;;4971432;28;20027;-69
2022/03/03 09:45:40;;;;;;;20.13;10.77;;;7.50;91.50;;;;;;4974678;28;20051;-68
2022/03/03 09:48:07;;;;;;;15.55;10.98;;;7.60;91.40;;;;;;4968428;28;20077;-68
2022/03/03 09:50:35;;;;;;;18.23;11.52;;;7.80;91.50;;;;;;4969668;28;20022;-68
2022/03/03 09:53:06;;;;;;;15.57;10.35;;;7.80;91.00;;;;;;4969781;28;20019;-68
2022/03/03 09:55:31;;;;;;;15.68;10.85;;;7.90;90.80;;;;;;4970749;28;20460;-68
2022/03/03 09:57:57;;;;;;;22.92;11.50;;;8.10;90.80;;;;;;4967798;28;20859;-68
2022/03/03 10:00:23;;;;;;;18.60;10.98;;;8.10;90.10;;;;;;4967435;28;20082;-68
2022/03/03 10:03:00;;;;;;;14.25;9.82;;;8.10;90.10;;;;;;4970157;28;20074;-68
2022/03/03 10:05:34;;;;;;;13.95;10.07;;;8.20;90.00;;;;;;4975007;28;20027;-68
2022/03/03 10:08:05;;;;;;;15.98;9.90;;;8.40;90.00;;;;;;4968585;28;20023;-68
2022/03/03 10:10:32;;;;;;;14.80;9.40;;;8.50;89.70;;;;;;4970592;28;20022;-68
2022/03/03 10:12:58;;;;;;;16.40;10.48;;;8.60;88.40;;;;;;4970659;28;20022;-68
2022/03/03 10:15:26;;;;;;;15.55;9.32;;;8.70;88.40;;;;;;4969920;28;20034;-69
2022/03/03 10:18:06;;;;;;;14.40;9.60;;;8.70;87.80;;;;;;4969367;28;20042;-68
2022/03/03 10:20:46;;;;;;;15.40;9.55;;;8.80;86.80;;;;;;4970777;28;20149;-69
2022/03/03 10:23:12;;;;;;;16.27;10.20;;;8.90;86.10;;;;;;4970821;28;20027;-68
2022/03/03 10:25:41;;;;;;;15.93;9.80;;;8.80;85.60;;;;;;4970127;28;20101;-68
2022/03/03 10:28:16;;;;;;;19.17;10.63;;;8.80;85.20;;;;;;4966964;28;20023;-68
2022/03/03 10:30:47;;;;;;;16.05;9.63;;;8.80;85.60;;;;;;4968939;28;20038;-68
2022/03/03 10:33:19;;;;;;;14.13;9.82;;;8.80;85.50;;;;;;4970563;28;20027;-68
2022/03/03 10:36:01;;;;;;;14.93;9.80;;;8.90;85.30;;;;;;4969644;28;20041;-68
2022/03/03 10:38:28;;;;;;;14.63;9.93;;;9.10;85.00;;;;;;4969151;28;20059;-68
2022/03/03 10:40:53;;;;;;;15.45;10.27;;;9.20;84.60;;;;;;4970579;28;20097;-68
2022/03/03 10:43:19;;;;;;;18.35;9.82;;;9.30;84.00;;;;;;4970581;28;20027;-69
2022/03/03 10:46:00;;;;;;;14.35;9.13;;;9.40;83.00;;;;;;4972348;28;20565;-68
2022/03/03 10:48:27;;;;;;;13.57;9.40;;;9.50;81.30;;;;;;4969981;28;20158;-68
2022/03/03 10:50:58;;;;;;;15.45;9.52;;;9.60;81.00;;;;;;4968903;28;20049;-68
2022/03/03 10:53:25;;;;;;;13.50;9.25;;;9.60;80.50;;;;;;4965064;28;20122;-68
2022/03/03 10:56:01;;;;;;;14.73;9.95;;;9.60;80.20;;;;;;4966242;28;20476;-69
2022/03/03 10:58:46;;;;;;;13.55;9.55;;;9.60;79.50;;;;;;4965449;28;20035;-69
2022/03/03 11:01:13;;;;;;;14.88;10.10;;;9.50;79.40;;;;;;4953112;28;20027;-69
2022/03/03 11:03:40;;;;;;;15.00;9.90;;;9.30;78.70;;;;;;4977864;28;20034;-69
2022/03/03 11:06:09;;;;;;;15.32;10.15;;;9.20;78.80;;;;;;4972887;28;20034;-68
2022/03/03 11:08:35;;;;;;;16.75;11.10;;;9.10;79.10;;;;;;4970731;28;20763;-68
2022/03/03 11:11:03;;;;;;;17.40;10.18;;;9.10;79.30;;;;;;4972351;28;20094;-68
2022/03/03 11:13:28;;;;;;;13.70;9.45;;;9.20;79.20;;;;;;4970540;28;20113;-68
2022/03/03 11:15:55;;;;;;;16.08;10.07;;;9.20;78.50;;;;;;4972631;28;20443;-69
2022/03/03 11:18:21;;;;;;;16.60;10.52;;;9.20;78.30;;;;;;4966012;28;20371;-69
2022/03/03 11:20:48;;;;;;;20.50;12.38;;;9.30;78.10;;;;;;4971072;28;20078;-69
2022/03/03 11:23:14;;;;;;;17.65;12.18;;;9.30;77.70;;;;;;4972360;28;20031;-68
2022/03/03 11:25:41;;;;;;;13.57;9.73;;;9.20;77.70;;;;;;4973202;28;20514;-68
2022/03/03 11:28:14;;;;;;;18.17;11.48;;;9.30;77.90;;;;;;4971673;28;20035;-68
2022/03/03 11:30:45;;;;;;;18.20;11.15;;;9.30;77.90;;;;;;4967169;28;20027;-68
2022/03/03 11:33:27;;;;;;;15.85;10.57;;;9.40;77.80;;;;;;4972022;28;20027;-68
2022/03/03 11:35:58;;;;;;;16.02;10.60;;;9.50;77.80;;;;;;4964842;28;20030;-68
2022/03/03 11:41:05;;;;;;;18.85;11.07;;;9.70;77.50;;;;;;5008270;28;20066;-73
2022/03/03 11:43:46;;;;;;;16.00;10.35;;;9.80;77.50;;;;;;5024530;28;20057;-73
2022/03/03 11:46:12;;;;;;;19.05;10.77;;;10.00;77.10;;;;;;5029835;28;20056;-73
2022/03/03 11:48:39;;;;;;;17.15;9.77;;;10.10;77.50;;;;;;5029407;28;20432;-74
2022/03/03 11:51:30;;;;;;;17.77;10.63;;;10.30;77.30;;;;;;5031437;28;20120;-73
2022/03/03 11:54:09;;;;;;;18.58;10.30;;;10.50;76.60;;;;;;5030851;28;20060;-73
2022/03/03 11:56:55;;;;;;;15.82;10.48;;;10.60;75.40;;;;;;5029529;28;20045;-73
2022/03/03 11:59:31;;;;;;;13.23;9.65;;;10.70;76.10;;;;;;5029990;28;20099;-73
2022/03/03 12:01:57;;;;;;;14.88;10.10;;;10.90;75.70;;;;;;5031773;28;20108;-73
2022/03/03 12:04:25;;;;;;;16.90;10.15;;;11.10;75.80;;;;;;5030070;28;20108;-73
2022/03/03 12:06:53;;;;;;;15.55;9.70;;;11.20;74.80;;;;;;5030522;28;20469;-73
2022/03/03 12:09:18;;;;;;;16.80;9.73;;;11.20;73.30;;;;;;5028323;28;20018;-73
2022/03/03 12:11:44;;;;;;;13.80;9.80;;;11.20;73.30;;;;;;5029403;28;20026;-74
2022/03/03 12:14:53;;;;;;;15.27;9.80;;;11.40;73.60;;;;;;5031267;28;20014;-73
2022/03/03 12:17:41;;;;;;;15.68;9.50;;;11.60;73.00;;;;;;5028159;28;20037;-74
2022/03/03 12:20:29;;;;;;;14.20;8.80;;;11.60;71.30;;;;;;5042437;28;20028;-74
2022/03/03 12:23:16;;;;;;;14.57;8.95;;;11.70;71.40;;;;;;5038792;28;20088;-73
2022/03/03 12:25:47;;;;;;;11.70;8.55;;;11.80;70.30;;;;;;5010558;28;20065;-73
2022/03/03 12:28:36;;;;;;;14.37;8.93;;;11.80;69.50;;;;;;5029778;28;20025;-74
2022/03/03 12:31:17;;;;;;;14.20;8.60;;;11.90;69.20;;;;;;5028132;28;20017;-73
2022/03/03 12:33:54;;;;;;;18.75;8.55;;;11.90;68.90;;;;;;5029753;28;20036;-74
2022/03/03 12:36:20;;;;;;;12.38;8.45;;;11.90;67.20;;;;;;5028470;28;20458;-73
2022/03/03 12:38:46;;;;;;;12.15;8.10;;;11.90;67.60;;;;;;5026355;28;20032;-74
2022/03/03 12:41:11;;;;;;;13.13;8.05;;;11.90;67.40;;;;;;5031633;28;20616;-73
2022/03/03 12:43:38;;;;;;;12.55;8.50;;;12.00;66.30;;;;;;5043177;28;20078;-73